• Join FlightAware (Why Join?)
  • Login
  • US Flag 
09:04AM EST


 

Airport Tracker/Info


-or-


 

Live Flight TrackerFlight Track Log ✈ CRK679 ✈ 31-Aug-2014 ✈ ROAH / OKA - VHHH / HKG

Flight Track Log - Related Links

Times and Time Zones

All times are in EDT time to prevent confusion due to time zone crossing. See the CRK679 flight status page for this flight to view local times or setup timezone preferences in your user account.

Time Position Orientation Groundspeed Altitude Reporting Facility
EDT Latitude Longitude Course Direction KTS MPH feet Rate Location/Type
01:22AM 22.3073 114.8743 356° North 291 335 19,100  Level FlightAware ADS-B
01:22AM 22.3331 114.8787 25° Northeast 280 322 18,900 -600 Descending FlightAware ADS-B
01:22AM 22.3520 114.8969 59° Northeast 274 315 18,700 -720 Descending FlightAware ADS-B
01:23AM 22.3617 114.9786 87° East 276 318 18,000 -600 Descending FlightAware ADS-B
01:24AM 22.3638 115.0319 88° East 272 313 17,700 -600 Descending FlightAware ADS-B
01:25AM 22.3647 115.0812 111° Southeast 266 306 17,200 -720 Descending FlightAware ADS-B
01:25AM 22.3473 115.1084 148° Southeast 263 303 17,000 -660 Descending FlightAware ADS-B
01:25AM 22.3263 115.1143 176° South 264 304 16,800 -780 Descending FlightAware ADS-B
01:26AM 22.2875 115.1141 188° South 267 307 16,400 -540 Descending FlightAware ADS-B
01:33AM 22.2131 114.4804 237° Southwest 313 360 13,000 -480 Descending FlightAware ADS-B
01:34AM 22.1843 114.4322 237° Southwest 312 359 13,000 -480 Level FlightAware ADS-B
01:35AM 22.1234 114.3269 239° Southwest 278 320 12,100 -780 Descending FlightAware ADS-B
01:35AM 22.1095 114.3052 224° Southwest 266 306 11,900 -600 Descending FlightAware ADS-B
01:36AM 22.0873 114.2946 185° South 251 289 11,700 -720 Descending FlightAware ADS-B
01:36AM 22.0402 114.2947 179° South 247 284 11,200 -780 Descending FlightAware ADS-B
01:37AM 21.9945 114.2951 180° South 247 284 10,700 -720 Descending FlightAware ADS-B
01:37AM 21.9755 114.2943 196° South 250 288 10,500 -600 Descending FlightAware ADS-B
01:38AM 21.9538 114.2786 237° Southwest 264 304 10,300 -720 Descending FlightAware ADS-B
01:38AM 21.9299 114.2313 242° Southwest 264 304 9,800 -720 Descending FlightAware ADS-B
01:39AM 21.9180 114.2070 242° Southwest 264 304 9,600 -780 Descending FlightAware ADS-B
01:39AM 21.9070 114.1847 242° Southwest 261 300 9,300 -780 Descending FlightAware ADS-B
01:39AM 21.8969 114.1634 251° West 264 304 9,100 -780 Descending FlightAware ADS-B
01:40AM 21.8939 114.1369 272° West 270 311 8,800 -1,080 Descending FlightAware ADS-B
01:40AM 21.8947 114.1077 272° West 269 310 8,400 -1,080 Descending FlightAware ADS-B
01:40AM 21.8952 114.0817 271° West 268 308 8,100 -960 Descending FlightAware ADS-B
01:41AM 21.8994 114.0579 295° West 273 314 7,800 -960 Descending FlightAware ADS-B
01:41AM 21.9150 114.0345 309° West 273 314 7,500 -900 Descending FlightAware ADS-B
01:41AM 21.9273 114.0183 309° West 272 313 7,200 -1,080 Descending FlightAware ADS-B
01:42AM 21.9398 114.0017 309° West 271 312 6,900 -900 Descending FlightAware ADS-B
01:42AM 21.9635 113.9698 309° West 271 312 6,600 -840 Descending FlightAware ADS-B
01:42AM 21.9790 113.9490 309° West 269 310 6,300 -900 Descending FlightAware ADS-B
01:43AM 21.9943 113.9285 309° West 268 308 6,000 -900 Descending FlightAware ADS-B
01:43AM 22.0099 113.9074 308° West 268 308 5,700 -780 Descending FlightAware ADS-B
01:43AM 22.0247 113.8873 309° West 263 303 5,500 -600 Descending FlightAware ADS-B
01:44AM 22.0414 113.8677 317° Northwest 255 293 5,300 -600 Descending FlightAware ADS-B
01:44AM 22.0771 113.8334 318° Northwest 250 288 4,900 -720 Descending FlightAware ADS-B
01:45AM 22.0929 113.8182 319° Northwest 248 285 4,600 -780 Descending FlightAware ADS-B
01:45AM 22.1087 113.8032 318° Northwest 243 280 4,400 -780 Descending FlightAware ADS-B
01:45AM 22.1272 113.7861 325° Northwest 228 262 4,100 -600 Descending FlightAware ADS-B
01:46AM 22.1450 113.7766 336° Northwest 218 251 4,000 -780 Descending FlightAware ADS-B
01:48AM 22.2492 113.7520 34° Northeast 171 197 2,300 -900 Descending FlightAware ADS-B
01:50AM 22.3089 113.9146 68° East  Level Estimated
01:51AM 22.3089 113.9146 North  Level Estimated
01:52AM 22.3089 113.9146 North  Level Estimated
01:53AM 22.3089 113.9146 North  Level Estimated
01:54AM 22.3089 113.9146 North  Level Estimated
01:55AM 22.3089 113.9146 North  Level Estimated
01:56AM 22.3089 113.9146 North  Level Estimated
01:57AM 22.3089 113.9146 North  Level Estimated
01:58AM 22.3089 113.9146 North  Level Estimated
01:59AM 22.3089 113.9146 North  Level Estimated